createdAt,value
2023-03-29T00:00:25.675Z,100272.63
2023-03-29T00:02:59.561Z,100273.19
2023-03-29T00:05:27.976Z,100269.54
2023-03-29T00:08:02.101Z,100272.34
2023-03-29T00:10:34.506Z,100277.39
2023-03-29T00:13:02.992Z,100289.06
2023-03-29T00:15:31.644Z,100293.61
2023-03-29T00:18:01.024Z,100295.00
2023-03-29T00:20:29.578Z,100298.30
2023-03-29T00:22:58.047Z,100290.67
2023-03-29T00:25:26.644Z,100293.86
2023-03-29T00:27:54.961Z,100297.57
2023-03-29T00:30:23.803Z,100296.54
2023-03-29T00:32:52.532Z,100297.40
2023-03-29T00:35:23.726Z,100295.66
2023-03-29T00:37:53.190Z,100289.39
2023-03-29T00:40:49.412Z,100291.30
2023-03-29T00:43:18.296Z,100297.01
2023-03-29T00:45:46.645Z,100297.52
2023-03-29T00:48:27.229Z,100301.02
2023-03-29T00:51:04.208Z,100308.35
2023-03-29T00:53:39.411Z,100308.52
2023-03-29T00:56:35.437Z,100304.53
2023-03-29T00:59:10.034Z,100304.58
2023-03-29T01:01:48.356Z,100302.58
2023-03-29T01:04:29.657Z,100297.23
2023-03-29T01:07:06.606Z,100297.60
2023-03-29T01:09:38.255Z,100295.02
2023-03-29T01:12:13.670Z,100296.59
2023-03-29T01:14:49.599Z,100291.91
2023-03-29T01:17:22.066Z,100295.06
2023-03-29T01:19:59.143Z,100293.16
2023-03-29T01:22:38.956Z,100293.86
2023-03-29T01:25:43.685Z,100297.55
2023-03-29T01:28:15.022Z,100303.46
2023-03-29T01:30:48.995Z,100302.27
2023-03-29T01:33:25.892Z,100306.33
2023-03-29T01:36:04.846Z,100314.51
2023-03-29T01:38:48.715Z,100315.73
2023-03-29T01:41:18.216Z,100318.20
2023-03-29T01:44:07.580Z,100320.30
2023-03-29T01:46:40.557Z,100328.33
2023-03-29T01:49:22.574Z,100335.48
2023-03-29T01:52:22.137Z,100337.93
2023-03-29T01:54:58.709Z,100341.77
2023-03-29T01:57:31.315Z,100337.95
2023-03-29T01:59:59.964Z,100337.47
2023-03-29T02:02:35.724Z,100336.77
2023-03-29T02:05:32.957Z,100335.08
2023-03-29T02:08:07.223Z,100336.63
2023-03-29T02:10:35.836Z,100334.54
2023-03-29T02:13:54.678Z,100336.48
2023-03-29T02:16:23.088Z,100339.27
2023-03-29T02:18:54.412Z,100338.06
2023-03-29T02:21:29.408Z,100348.15
2023-03-29T02:23:58.309Z,100347.11
2023-03-29T02:26:29.424Z,100349.72
2023-03-29T02:28:57.894Z,100354.77
2023-03-29T02:31:58.158Z,100354.08
2023-03-29T02:34:58.927Z,100358.95
2023-03-29T02:37:30.489Z,100365.73
2023-03-29T02:39:59.765Z,100362.26
2023-03-29T02:42:28.464Z,100360.90
2023-03-29T02:45:02.117Z,100362.63
2023-03-29T02:47:39.873Z,100363.34
2023-03-29T02:50:08.783Z,100362.83
2023-03-29T02:52:53.499Z,100361.27
2023-03-29T02:55:23.004Z,100357.81
2023-03-29T02:57:55.391Z,100354.71
2023-03-29T03:00:24.221Z,100359.42
2023-03-29T03:02:52.866Z,100361.50
2023-03-29T03:05:33.826Z,100376.60
2023-03-29T03:08:27.530Z,100379.23
2023-03-29T03:10:56.903Z,100383.77
2023-03-29T03:13:27.172Z,100379.41
2023-03-29T03:15:56.294Z,100369.52
2023-03-29T03:18:24.703Z,100364.49
2023-03-29T03:21:02.207Z,100371.80
2023-03-29T03:23:30.867Z,100381.38
2023-03-29T03:26:00.623Z,100389.88
2023-03-29T03:28:32.508Z,100397.86
2023-03-29T03:31:01.534Z,100399.60
2023-03-29T03:33:49.171Z,100388.66
2023-03-29T03:36:44.620Z,100389.38
2023-03-29T03:39:13.629Z,100392.34
2023-03-29T03:41:42.085Z,100407.96
2023-03-29T03:44:14.162Z,100401.38
2023-03-29T03:47:09.704Z,100395.99
2023-03-29T03:49:42.336Z,100409.70
2023-03-29T03:52:11.040Z,100415.25
2023-03-29T03:54:39.788Z,100423.41
2023-03-29T03:57:33.258Z,100417.69
2023-03-29T04:00:01.639Z,100415.42
2023-03-29T04:02:41.968Z,100426.20
2023-03-29T04:05:39.400Z,100431.58
2023-03-29T04:08:34.507Z,100436.10
2023-03-29T04:11:18.226Z,100449.98
2023-03-29T04:13:46.843Z,100446.50
2023-03-29T04:16:35.953Z,100443.89
2023-03-29T04:19:42.125Z,100436.26
2023-03-29T04:22:13.287Z,100435.40
2023-03-29T04:24:41.569Z,100441.83
2023-03-29T04:27:34.707Z,100451.54
2023-03-29T04:30:11.042Z,100464.38
2023-03-29T04:33:01.525Z,100470.12
2023-03-29T04:35:30.935Z,100470.98
2023-03-29T04:38:00.192Z,100467.16
2023-03-29T04:40:29.629Z,100471.15
2023-03-29T04:43:09.036Z,100480.18
2023-03-29T04:46:07.524Z,100476.86
2023-03-29T04:49:00.678Z,100480.70
2023-03-29T04:51:37.416Z,100481.05
2023-03-29T04:54:53.445Z,100504.98
2023-03-29T04:57:27.292Z,100509.84
2023-03-29T05:00:17.112Z,100521.63
2023-03-29T05:03:14.864Z,100523.00
2023-03-29T05:06:07.239Z,100525.60
2023-03-29T05:08:39.378Z,100529.95
2023-03-29T05:11:51.933Z,100530.66
2023-03-29T05:14:52.886Z,100536.05
2023-03-29T05:17:49.076Z,100531.20
2023-03-29T05:20:45.996Z,100538.84
2023-03-29T05:24:14.243Z,100544.22
2023-03-29T05:27:35.941Z,100554.63
2023-03-29T05:30:09.741Z,100561.05
2023-03-29T05:32:54.247Z,100563.81
2023-03-29T05:35:29.432Z,100574.39
2023-03-29T05:38:24.264Z,100584.44
2023-03-29T05:40:53.879Z,100595.01
2023-03-29T05:43:30.062Z,100600.90
2023-03-29T05:45:58.539Z,100612.53
2023-03-29T05:48:31.249Z,100621.71
2023-03-29T05:50:59.628Z,100637.33
2023-03-29T05:53:32.595Z,100646.19
2023-03-29T05:56:02.382Z,100659.90
2023-03-29T05:58:31.550Z,100664.77
2023-03-29T06:01:52.197Z,100671.55
2023-03-29T06:04:22.577Z,100681.77
2023-03-29T06:07:05.721Z,100688.36
2023-03-29T06:09:34.444Z,100697.21
2023-03-29T06:12:08.016Z,100705.72
2023-03-29T06:14:43.689Z,100721.00
2023-03-29T06:17:33.950Z,100726.37
2023-03-29T06:20:09.269Z,100739.39
2023-03-29T06:22:39.002Z,100744.09
2023-03-29T06:25:35.687Z,100741.84
2023-03-29T06:28:04.335Z,100744.13
2023-03-29T06:30:34.051Z,100744.48
2023-03-29T06:33:10.745Z,100738.41
2023-03-29T06:36:14.274Z,100730.91
2023-03-29T06:38:45.849Z,100735.07
2023-03-29T06:41:34.702Z,100746.33
2023-03-29T06:44:12.141Z,100760.54
2023-03-29T06:47:19.196Z,100765.03
2023-03-29T06:49:47.652Z,100767.80
2023-03-29T06:52:42.196Z,100771.63
2023-03-29T06:55:12.124Z,100778.94
2023-03-29T06:57:44.247Z,100777.20
2023-03-29T07:00:18.675Z,100776.02
2023-03-29T07:03:06.888Z,100769.22
2023-03-29T07:05:41.252Z,100772.16
2023-03-29T07:08:14.084Z,100787.45
2023-03-29T07:11:00.241Z,100807.08
2023-03-29T07:13:49.360Z,100818.88
2023-03-29T07:17:15.074Z,100829.98
2023-03-29T07:19:45.391Z,100854.42
2023-03-29T07:22:32.888Z,100868.46
2023-03-29T07:25:02.729Z,100879.75
2023-03-29T07:27:31.800Z,100881.27
2023-03-29T07:30:01.529Z,100885.60
2023-03-29T07:32:32.168Z,100890.65
2023-03-29T07:35:15.190Z,100888.04
2023-03-29T07:38:04.256Z,100886.17
2023-03-29T07:40:39.945Z,100879.61
2023-03-29T07:43:29.321Z,100874.48
2023-03-29T07:46:05.030Z,100860.29
2023-03-29T07:48:42.311Z,100846.56
2023-03-29T07:51:12.561Z,100840.30
2023-03-29T07:53:50.144Z,100827.11
2023-03-29T07:56:55.605Z,100815.13
2023-03-29T07:59:40.308Z,100810.08
2023-03-29T08:02:11.953Z,100810.44
2023-03-29T08:04:42.817Z,100807.33
2023-03-29T08:07:46.111Z,100813.23
2023-03-29T08:10:22.177Z,100806.26
2023-03-29T08:12:56.965Z,100812.13
2023-03-29T08:18:48.265Z,100835.69
2023-03-29T08:22:06.522Z,100841.73
2023-03-29T08:32:39.584Z,100834.86
2023-03-29T08:35:34.580Z,100825.19
2023-03-29T08:38:14.489Z,100815.35
2023-03-29T08:40:47.620Z,100793.31
2023-03-29T08:43:40.142Z,100779.08
2023-03-29T08:46:35.408Z,100775.60
2023-03-29T08:49:27.529Z,100773.34
2023-03-29T08:52:00.049Z,100764.11
2023-03-29T08:55:05.906Z,100760.84
2023-03-29T08:57:57.934Z,100765.54
2023-03-29T09:04:06.377Z,100765.52
2023-03-29T09:07:17.280Z,100768.64
2023-03-29T09:10:40.039Z,100765.30
2023-03-29T09:13:14.881Z,100771.57
2023-03-29T09:15:53.230Z,100768.95
2023-03-29T09:19:23.372Z,100764.08
2023-03-29T09:22:42.972Z,100771.54
2023-03-29T09:25:52.657Z,100781.42
2023-03-29T09:28:39.420Z,100785.91
2023-03-29T09:31:39.335Z,100794.40
2023-03-29T09:34:15.875Z,100807.27
2023-03-29T09:37:32.963Z,100810.04
2023-03-29T09:43:44.206Z,100814.81
2023-03-29T09:46:20.774Z,100813.27
2023-03-29T09:48:49.291Z,100801.64
2023-03-29T09:52:07.629Z,100803.23
2023-03-29T09:54:48.726Z,100795.09
2023-03-29T09:58:23.148Z,100794.92
2023-03-29T10:01:17.746Z,100802.94
2023-03-29T10:03:49.908Z,100801.55
2023-03-29T10:06:19.420Z,100801.90
2023-03-29T10:08:55.968Z,100798.77
2023-03-29T10:11:31.749Z,100797.04
2023-03-29T10:14:05.497Z,100809.72
2023-03-29T10:16:37.255Z,100813.02
2023-03-29T10:19:39.405Z,100814.23
2023-03-29T10:22:41.851Z,100810.94
2023-03-29T10:25:42.147Z,100820.51
2023-03-29T10:28:17.576Z,100827.96
2023-03-29T10:30:50.038Z,100829.01
2023-03-29T10:33:21.294Z,100837.70
2023-03-29T10:35:49.636Z,100836.48
2023-03-29T10:38:19.858Z,100838.39
2023-03-29T10:41:39.260Z,100843.95
2023-03-29T10:44:36.825Z,100850.89
2023-03-29T10:47:20.550Z,100849.67
2023-03-29T10:49:57.254Z,100850.71
2023-03-29T10:52:26.018Z,100856.45
2023-03-29T10:54:55.326Z,100858.86
2023-03-29T10:57:58.547Z,100861.80
2023-03-29T11:01:22.442Z,100864.95
2023-03-29T11:04:36.859Z,100862.50
2023-03-29T11:07:56.465Z,100860.42
2023-03-29T11:10:31.580Z,100861.46
2023-03-29T11:13:22.317Z,100862.51
2023-03-29T11:16:25.787Z,100872.06
2023-03-29T11:18:58.617Z,100870.50
2023-03-29T11:22:43.782Z,100873.47
2023-03-29T11:29:22.687Z,100899.38
2023-03-29T11:32:23.737Z,100896.95
2023-03-29T11:35:31.532Z,100900.77
2023-03-29T11:38:59.807Z,100902.70
2023-03-29T11:41:35.826Z,100906.70
2023-03-29T11:44:30.515Z,100910.52
2023-03-29T11:47:20.367Z,100904.27
2023-03-29T11:49:57.685Z,100905.31
2023-03-29T11:52:33.973Z,100903.56
2023-03-29T11:55:08.335Z,100909.83
2023-03-29T11:57:54.104Z,100913.46
2023-03-29T12:00:29.147Z,100916.26
2023-03-29T12:03:38.961Z,100908.08
2023-03-29T12:06:13.267Z,100908.95
2023-03-29T12:09:04.131Z,100903.37
2023-03-29T12:11:48.877Z,100907.04
2023-03-29T12:14:18.667Z,100907.02
2023-03-29T12:17:01.455Z,100914.17
2023-03-29T12:19:32.426Z,100918.00
2023-03-29T12:22:00.752Z,100916.95
2023-03-29T12:24:31.140Z,100917.30
2023-03-29T12:27:20.691Z,100921.83
2023-03-29T12:30:46.907Z,100926.16
2023-03-29T12:33:39.988Z,100920.08
2023-03-29T12:36:46.008Z,100913.63
2023-03-29T12:40:18.178Z,100911.20
2023-03-29T12:43:07.223Z,100902.69
2023-03-29T12:46:31.113Z,100905.99
2023-03-29T12:49:10.201Z,100896.95
2023-03-29T12:51:40.217Z,100894.70
2023-03-29T12:54:33.301Z,100894.16
2023-03-29T12:57:03.654Z,100896.77
2023-03-29T12:59:39.988Z,100893.98
2023-03-29T13:02:35.223Z,100899.21
2023-03-29T13:05:05.734Z,100894.17
2023-03-29T13:07:46.726Z,100895.91
2023-03-29T13:10:38.228Z,100889.12
2023-03-29T13:13:16.462Z,100892.41
2023-03-29T13:15:46.292Z,100884.26
2023-03-29T13:19:02.534Z,100885.81
2023-03-29T13:21:53.281Z,100879.89
2023-03-29T13:27:44.199Z,100872.60
2023-03-29T13:30:56.033Z,100876.42
2023-03-29T13:33:30.203Z,100871.57
2023-03-29T13:36:18.674Z,100864.43
2023-03-29T13:39:21.762Z,100877.45
2023-03-29T13:41:52.124Z,100871.70
2023-03-29T13:44:30.042Z,100858.16
2023-03-29T13:47:27.947Z,100851.21
2023-03-29T13:50:00.209Z,100855.20
2023-03-29T13:53:02.571Z,100864.92
2023-03-29T13:55:56.481Z,100867.16
2023-03-29T13:58:36.383Z,100866.30
2023-03-29T14:01:18.004Z,100879.33
2023-03-29T14:03:48.868Z,100885.91
2023-03-29T14:07:08.603Z,100886.45
2023-03-29T14:09:41.572Z,100877.08
2023-03-29T14:12:14.697Z,100877.77
2023-03-29T14:14:57.782Z,100892.36
2023-03-29T14:17:33.982Z,100890.96
2023-03-29T14:20:02.296Z,100903.46
2023-03-29T14:22:37.976Z,100898.92
2023-03-29T14:25:07.880Z,100895.97
2023-03-29T14:27:38.072Z,100895.98
2023-03-29T14:30:22.565Z,100890.24
2023-03-29T14:32:52.623Z,100889.55
2023-03-29T14:35:32.930Z,100890.06
2023-03-29T14:38:01.792Z,100893.89
2023-03-29T14:40:30.212Z,100901.87
2023-03-29T14:42:59.759Z,100898.90
2023-03-29T14:45:54.540Z,100896.80
2023-03-29T14:48:22.841Z,100903.93
2023-03-29T14:51:16.604Z,100900.60
2023-03-29T14:54:11.627Z,100901.99
2023-03-29T14:56:39.909Z,100905.27
2023-03-29T14:59:27.593Z,100916.58
2023-03-29T15:01:56.838Z,100921.59
2023-03-29T15:07:56.363Z,100927.31
2023-03-29T15:11:02.102Z,100926.10
2023-03-29T15:13:30.631Z,100933.91
2023-03-29T15:16:01.867Z,100931.99
2023-03-29T15:18:36.443Z,100931.81
2023-03-29T15:21:34.846Z,100930.41
2023-03-29T15:24:04.201Z,100934.21
2023-03-29T15:26:36.946Z,100934.55
2023-03-29T15:29:12.637Z,100934.20
2023-03-29T15:31:42.127Z,100936.63
2023-03-29T15:34:14.289Z,100939.73
2023-03-29T15:36:47.619Z,100938.70
2023-03-29T15:39:17.350Z,100941.47
2023-03-29T15:41:46.925Z,100947.72
2023-03-29T15:44:27.843Z,100947.54
2023-03-29T15:46:57.961Z,100947.70
2023-03-29T15:49:26.655Z,100950.66
2023-03-29T15:52:45.944Z,100954.48
2023-03-29T15:55:14.743Z,100960.02
2023-03-29T15:57:46.690Z,100961.23
2023-03-29T16:01:12.557Z,100966.77
2023-03-29T16:06:37.562Z,100962.09
2023-03-29T16:09:07.265Z,100964.68
2023-03-29T16:11:35.832Z,100970.58
2023-03-29T16:14:52.773Z,100973.52
2023-03-29T16:17:46.604Z,100980.46
2023-03-29T16:20:20.267Z,100979.77
2023-03-29T16:22:49.156Z,100982.38
2023-03-29T16:25:43.764Z,100986.89
2023-03-29T16:28:39.617Z,100990.69
2023-03-29T16:34:04.942Z,100996.07
2023-03-29T16:36:38.882Z,100995.73
2023-03-29T16:39:16.329Z,100999.71
2023-03-29T16:41:46.890Z,101006.48
2023-03-29T16:44:22.480Z,101008.23
2023-03-29T16:47:51.189Z,101012.73
2023-03-29T16:53:40.761Z,101023.67
2023-03-29T16:56:14.857Z,101025.41
2023-03-29T17:03:17.240Z,101035.10
2023-03-29T17:06:39.726Z,101034.92
2023-03-29T17:09:08.228Z,101041.34
2023-03-29T17:14:14.612Z,101053.84
2023-03-29T17:17:35.439Z,101053.65
2023-03-29T17:20:07.142Z,101049.48
2023-03-29T17:22:36.285Z,101049.14
2023-03-29T17:25:10.281Z,101047.23
2023-03-29T17:27:40.932Z,101050.52
2023-03-29T17:30:11.623Z,101048.96
2023-03-29T17:33:09.646Z,101048.93
2023-03-29T17:35:44.086Z,101046.34
2023-03-29T17:38:13.546Z,101051.02
2023-03-29T17:40:42.543Z,101054.66
2023-03-29T17:43:12.626Z,101059.16
2023-03-29T17:45:41.811Z,101059.15
2023-03-29T17:48:10.207Z,101064.20
2023-03-29T17:50:41.328Z,101065.25
2023-03-29T17:53:10.514Z,101070.63
2023-03-29T17:56:30.845Z,101075.30
2023-03-29T17:59:05.332Z,101075.14
2023-03-29T18:01:38.949Z,101075.30
2023-03-29T18:04:08.547Z,101080.86
2023-03-29T18:06:37.275Z,101080.51
2023-03-29T18:09:13.600Z,101078.41
2023-03-29T18:11:43.302Z,101075.29
2023-03-29T18:14:37.841Z,101082.74
2023-03-29T18:17:13.168Z,101082.23
2023-03-29T18:19:42.128Z,101083.80
2023-03-29T18:22:10.902Z,101082.06
2023-03-29T18:24:41.365Z,101082.58
2023-03-29T18:27:16.084Z,101079.63
2023-03-29T18:29:50.125Z,101079.64
2023-03-29T18:32:45.031Z,101075.80
2023-03-29T18:35:13.680Z,101074.92
2023-03-29T18:37:44.136Z,101077.70
2023-03-29T18:40:41.980Z,101076.84
2023-03-29T18:43:13.671Z,101071.63
2023-03-29T18:45:45.305Z,101069.02
2023-03-29T18:48:14.103Z,101066.06
2023-03-29T18:50:45.344Z,101063.97
2023-03-29T18:53:17.373Z,101069.35
2023-03-29T18:55:47.058Z,101067.26
2023-03-29T18:58:15.811Z,101067.08
2023-03-29T19:00:45.996Z,101064.63
2023-03-29T19:03:21.266Z,101068.62
2023-03-29T19:06:41.393Z,101071.40
2023-03-29T19:09:12.161Z,101069.31
2023-03-29T19:11:41.402Z,101072.63
2023-03-29T19:14:10.055Z,101071.05
2023-03-29T19:16:40.887Z,101074.00
2023-03-29T19:19:11.391Z,101072.61
2023-03-29T19:22:05.675Z,101069.84
2023-03-29T19:24:34.585Z,101069.84
2023-03-29T19:27:06.847Z,101069.81
2023-03-29T19:29:36.991Z,101079.70
2023-03-29T19:32:08.856Z,101083.34
2023-03-29T19:35:27.570Z,101082.49
2023-03-29T19:37:56.350Z,101081.61
2023-03-29T19:41:41.991Z,101075.52
2023-03-29T19:44:10.509Z,101077.09
2023-03-29T19:47:06.023Z,101075.52
2023-03-29T19:49:36.806Z,101079.15
2023-03-29T19:55:49.946Z,101073.60
2023-03-29T19:58:19.928Z,101089.21
2023-03-29T20:00:48.269Z,101095.28
2023-03-29T20:03:43.859Z,101089.73
2023-03-29T20:06:37.698Z,101095.45
2023-03-29T20:09:07.882Z,101099.26
2023-03-29T20:11:46.996Z,101102.73
2023-03-29T20:14:15.650Z,101094.40
2023-03-29T20:16:47.105Z,101095.60
2023-03-29T20:19:17.499Z,101098.02
2023-03-29T20:21:46.552Z,101099.76
2023-03-29T20:24:18.363Z,101097.68
2023-03-29T20:26:46.821Z,101098.71
2023-03-29T20:29:43.036Z,101099.23
2023-03-29T20:32:11.500Z,101101.85
2023-03-29T20:34:39.943Z,101102.19
2023-03-29T20:37:08.313Z,101101.85
2023-03-29T20:39:45.417Z,101100.63
2023-03-29T20:42:14.462Z,101101.49
2023-03-29T20:44:50.677Z,101104.62
2023-03-29T20:47:19.565Z,101102.37
2023-03-29T20:49:47.805Z,101103.92
2023-03-29T20:52:16.828Z,101105.48
2023-03-29T20:54:46.103Z,101107.04
2023-03-29T20:57:45.441Z,101109.28
2023-03-29T21:00:38.642Z,101107.20
2023-03-29T21:03:08.825Z,101107.20
2023-03-29T21:05:39.077Z,101104.08
2023-03-29T21:08:11.233Z,101104.93
2023-03-29T21:11:30.121Z,101102.85
2023-03-29T21:14:25.565Z,101110.65
2023-03-29T21:17:43.574Z,101105.42
2023-03-29T21:20:13.483Z,101102.98
2023-03-29T21:22:43.201Z,101106.82
2023-03-29T21:26:02.111Z,101101.45
2023-03-29T21:28:30.642Z,101102.64
2023-03-29T21:30:59.337Z,101101.60
2023-03-29T21:33:31.378Z,101102.97
2023-03-29T21:36:00.948Z,101101.41
2023-03-29T21:38:30.217Z,101098.11
2023-03-29T21:41:24.273Z,101104.00
2023-03-29T21:43:56.736Z,101111.45
2023-03-29T21:46:26.032Z,101110.41
2023-03-29T21:49:20.118Z,101109.17
2023-03-29T21:51:49.062Z,101112.83
2023-03-29T21:54:17.340Z,101112.31
2023-03-29T21:59:40.957Z,101113.20
2023-03-29T22:02:09.461Z,101109.21
2023-03-29T22:04:38.253Z,101110.40
2023-03-29T22:07:10.912Z,101106.25
2023-03-29T22:09:42.503Z,101115.08
2023-03-29T22:12:10.888Z,101122.54
2023-03-29T22:14:39.107Z,101126.88
2023-03-29T22:17:08.173Z,101125.50
2023-03-29T22:19:40.237Z,101121.70
2023-03-29T22:22:14.114Z,101120.13
2023-03-29T22:24:42.679Z,101119.45
2023-03-29T22:27:15.700Z,101120.30
2023-03-29T22:30:35.337Z,101121.34
2023-03-29T22:33:53.927Z,101128.24
2023-03-29T22:36:51.979Z,101126.16
2023-03-29T22:39:20.666Z,101120.77
2023-03-29T22:42:14.075Z,101124.92
2023-03-29T22:44:42.654Z,101137.93
2023-03-29T22:47:11.185Z,101139.14
2023-03-29T22:49:39.750Z,101141.55
2023-03-29T22:52:08.019Z,101138.61
2023-03-29T22:55:01.146Z,101143.46
2023-03-29T22:57:31.737Z,101146.40
2023-03-29T23:00:50.219Z,101148.31
2023-03-29T23:03:23.580Z,101146.74
2023-03-29T23:05:53.206Z,101142.06
2023-03-29T23:08:48.145Z,101147.09
2023-03-29T23:11:46.507Z,101145.70
2023-03-29T23:14:15.098Z,101137.89
2023-03-29T23:16:43.281Z,101134.77
2023-03-29T23:19:12.806Z,101132.66
2023-03-29T23:21:42.057Z,101131.77
2023-03-29T23:24:19.166Z,101135.59
2023-03-29T23:26:50.386Z,101140.08
2023-03-29T23:29:18.570Z,101140.41
2023-03-29T23:31:47.897Z,101144.06
2023-03-29T23:34:16.195Z,101148.40
2023-03-29T23:36:47.905Z,101148.59
2023-03-29T23:39:16.474Z,101147.90
2023-03-29T23:41:44.717Z,101146.00
2023-03-29T23:44:23.563Z,101150.69
2023-03-29T23:46:52.183Z,101153.98
2023-03-29T23:49:23.128Z,101157.08
2023-03-29T23:51:51.754Z,101157.59
2023-03-29T23:54:20.228Z,101160.04
2023-03-29T23:57:25.307Z,101159.50
2023-03-29T23:59:56.051Z,101165.92
